sensor_id;sensor_type;location;lat;lon;timestamp;P1;durP1;ratioP1;P2;durP2;ratioP2
466;SDS011;72290;48.808;9.222;2024-01-30T06:01:49;23.57;;;12.40;;
466;SDS011;72290;48.808;9.222;2024-01-30T06:04:15;26.93;;;11.53;;
466;SDS011;72290;48.808;9.222;2024-01-30T06:06:41;27.93;;;12.73;;
466;SDS011;72290;48.808;9.222;2024-01-30T06:09:07;22.83;;;11.63;;
466;SDS011;72290;48.808;9.222;2024-01-30T06:11:34;24.83;;;12.40;;
466;SDS011;72290;48.808;9.222;2024-01-30T06:14:00;22.23;;;12.53;;
466;SDS011;72290;48.808;9.222;2024-01-30T06:16:26;29.97;;;12.80;;
466;SDS011;72290;48.808;9.222;2024-01-30T06:18:54;44.47;;;13.33;;
466;SDS011;72290;48.808;9.222;2024-01-30T06:21:20;20.97;;;11.23;;
466;SDS011;72290;48.808;9.222;2024-01-30T06:23:46;23.43;;;12.90;;
466;SDS011;72290;48.808;9.222;2024-01-30T06:26:12;31.50;;;13.17;;
466;SDS011;72290;48.808;9.222;2024-01-30T06:28:38;24.53;;;11.50;;
466;SDS011;72290;48.808;9.222;2024-01-30T06:31:04;21.50;;;11.47;;
466;SDS011;72290;48.808;9.222;2024-01-30T06:33:30;21.50;;;11.93;;
466;SDS011;72290;48.808;9.222;2024-01-30T06:35:56;20.67;;;10.97;;
466;SDS011;72290;48.808;9.222;2024-01-30T06:38:22;28.17;;;13.70;;
466;SDS011;72290;48.808;9.222;2024-01-30T06:40:48;21.23;;;11.50;;
466;SDS011;72290;48.808;9.222;2024-01-30T06:43:14;25.77;;;13.40;;
466;SDS011;72290;48.808;9.222;2024-01-30T06:45:40;27.93;;;12.27;;
466;SDS011;72290;48.808;9.222;2024-01-30T06:48:07;27.43;;;13.07;;
466;SDS011;72290;48.808;9.222;2024-01-30T06:50:33;29.00;;;13.80;;
466;SDS011;72290;48.808;9.222;2024-01-30T06:52:59;20.70;;;12.20;;
466;SDS011;72290;48.808;9.222;2024-01-30T06:55:25;29.33;;;12.47;;
466;SDS011;72290;48.808;9.222;2024-01-30T06:57:51;25.90;;;12.60;;
466;SDS011;72290;48.808;9.222;2024-01-30T07:00:17;26.40;;;11.17;;
466;SDS011;72290;48.808;9.222;2024-01-30T07:02:44;26.23;;;11.00;;
466;SDS011;72290;48.808;9.222;2024-01-30T07:05:10;26.17;;;13.00;;
466;SDS011;72290;48.808;9.222;2024-01-30T07:07:36;24.23;;;12.90;;
466;SDS011;72290;48.808;9.222;2024-01-30T07:10:02;26.10;;;12.37;;
466;SDS011;72290;48.808;9.222;2024-01-30T07:12:30;31.80;;;14.33;;
466;SDS011;72290;48.808;9.222;2024-01-30T07:14:56;29.00;;;14.00;;
466;SDS011;72290;48.808;9.222;2024-01-30T07:17:24;23.40;;;11.30;;
466;SDS011;72290;48.808;9.222;2024-01-30T07:19:50;23.73;;;13.47;;
466;SDS011;72290;48.808;9.222;2024-01-30T07:22:16;22.70;;;12.03;;
466;SDS011;72290;48.808;9.222;2024-01-30T07:24:43;21.77;;;11.80;;
466;SDS011;72290;48.808;9.222;2024-01-30T07:27:14;34.20;;;13.30;;
466;SDS011;72290;48.808;9.222;2024-01-30T07:29:42;21.93;;;12.23;;
466;SDS011;72290;48.808;9.222;2024-01-30T07:32:08;25.03;;;13.10;;
466;SDS011;72290;48.808;9.222;2024-01-30T07:34:34;26.57;;;12.00;;
466;SDS011;72290;48.808;9.222;2024-01-30T07:37:01;27.90;;;11.83;;
466;SDS011;72290;48.808;9.222;2024-01-30T07:39:27;25.23;;;12.30;;
466;SDS011;72290;48.808;9.222;2024-01-30T07:41:53;27.70;;;13.13;;
466;SDS011;72290;48.808;9.222;2024-01-30T07:44:20;26.77;;;13.00;;
466;SDS011;72290;48.808;9.222;2024-01-30T07:46:46;31.37;;;12.17;;
466;SDS011;72290;48.808;9.222;2024-01-30T07:49:12;23.60;;;12.60;;
466;SDS011;72290;48.808;9.222;2024-01-30T07:51:39;29.00;;;12.57;;
466;SDS011;72290;48.808;9.222;2024-01-30T07:54:05;34.80;;;12.80;;
466;SDS011;72290;48.808;9.222;2024-01-30T07:56:31;27.17;;;12.10;;
466;SDS011;72290;48.808;9.222;2024-01-30T07:58:57;26.87;;;11.80;;
466;SDS011;72290;48.808;9.222;2024-01-30T08:01:23;25.40;;;12.77;;
466;SDS011;72290;48.808;9.222;2024-01-30T08:03:49;22.47;;;11.57;;
466;SDS011;72290;48.808;9.222;2024-01-30T08:06:15;29.03;;;12.17;;
466;SDS011;72290;48.808;9.222;2024-01-30T08:08:41;30.20;;;12.47;;
466;SDS011;72290;48.808;9.222;2024-01-30T08:11:07;23.40;;;11.47;;
466;SDS011;72290;48.808;9.222;2024-01-30T08:13:33;25.40;;;12.23;;
466;SDS011;72290;48.808;9.222;2024-01-30T08:15:58;22.30;;;11.40;;
466;SDS011;72290;48.808;9.222;2024-01-30T08:18:24;22.60;;;11.73;;
466;SDS011;72290;48.808;9.222;2024-01-30T08:20:51;27.60;;;11.73;;
466;SDS011;72290;48.808;9.222;2024-01-30T08:23:17;24.23;;;10.40;;
466;SDS011;72290;48.808;9.222;2024-01-30T08:25:43;22.00;;;11.80;;
466;SDS011;72290;48.808;9.222;2024-01-30T08:28:09;27.33;;;11.73;;
466;SDS011;72290;48.808;9.222;2024-01-30T08:30:35;24.93;;;12.37;;
466;SDS011;72290;48.808;9.222;2024-01-30T08:33:01;19.70;;;10.67;;
466;SDS011;72290;48.808;9.222;2024-01-30T08:35:27;20.57;;;11.40;;
466;SDS011;72290;48.808;9.222;2024-01-30T08:37:56;21.07;;;11.33;;
466;SDS011;72290;48.808;9.222;2024-01-30T08:40:22;22.33;;;10.87;;
466;SDS011;72290;48.808;9.222;2024-01-30T08:42:48;21.67;;;11.07;;
466;SDS011;72290;48.808;9.222;2024-01-30T08:45:14;26.73;;;10.50;;
466;SDS011;72290;48.808;9.222;2024-01-30T08:47:40;21.87;;;11.13;;
466;SDS011;72290;48.808;9.222;2024-01-30T08:50:06;26.73;;;12.10;;
466;SDS011;72290;48.808;9.222;2024-01-30T08:52:32;19.90;;;11.57;;
466;SDS011;72290;48.808;9.222;2024-01-30T08:54:59;19.50;;;11.30;;
466;SDS011;72290;48.808;9.222;2024-01-30T08:57:25;25.07;;;12.83;;
466;SDS011;72290;48.808;9.222;2024-01-30T08:59:54;24.73;;;12.73;;
466;SDS011;72290;48.808;9.222;2024-01-30T09:02:20;24.47;;;12.37;;
466;SDS011;72290;48.808;9.222;2024-01-30T09:04:46;29.17;;;13.53;;
466;SDS011;72290;48.808;9.222;2024-01-30T09:07:12;28.60;;;12.50;;
466;SDS011;72290;48.808;9.222;2024-01-30T09:09:41;28.17;;;13.70;;
466;SDS011;72290;48.808;9.222;2024-01-30T09:12:07;27.50;;;13.73;;
466;SDS011;72290;48.808;9.222;2024-01-30T09:14:36;28.33;;;14.33;;
466;SDS011;72290;48.808;9.222;2024-01-30T09:17:02;26.33;;;12.73;;
466;SDS011;72290;48.808;9.222;2024-01-30T09:19:28;30.40;;;14.30;;
466;SDS011;72290;48.808;9.222;2024-01-30T09:21:54;30.73;;;14.37;;
466;SDS011;72290;48.808;9.222;2024-01-30T09:24:20;34.43;;;14.70;;
466;SDS011;72290;48.808;9.222;2024-01-30T09:26:46;33.83;;;14.47;;
466;SDS011;72290;48.808;9.222;2024-01-30T09:29:12;33.13;;;14.53;;
466;SDS011;72290;48.808;9.222;2024-01-30T09:31:38;23.90;;;13.57;;
466;SDS011;72290;48.808;9.222;2024-01-30T09:34:04;23.60;;;13.30;;
466;SDS011;72290;48.808;9.222;2024-01-30T09:36:31;29.30;;;13.00;;
466;SDS011;72290;48.808;9.222;2024-01-30T09:38:57;24.63;;;12.40;;
466;SDS011;72290;48.808;9.222;2024-01-30T09:41:23;31.10;;;15.20;;
466;SDS011;72290;48.808;9.222;2024-01-30T09:43:50;29.73;;;14.07;;
466;SDS011;72290;48.808;9.222;2024-01-30T09:46:17;33.03;;;14.07;;
466;SDS011;72290;48.808;9.222;2024-01-30T09:48:46;46.93;;;14.07;;
466;SDS011;72290;48.808;9.222;2024-01-30T09:51:14;34.27;;;13.97;;
466;SDS011;72290;48.808;9.222;2024-01-30T09:53:42;31.83;;;13.13;;
466;SDS011;72290;48.808;9.222;2024-01-30T09:56:09;29.90;;;13.30;;
466;SDS011;72290;48.808;9.222;2024-01-30T09:58:36;27.70;;;11.47;;
466;SDS011;72290;48.808;9.222;2024-01-30T10:01:02;29.43;;;13.90;;
466;SDS011;72290;48.808;9.222;2024-01-30T10:03:28;31.83;;;12.70;;
466;SDS011;72290;48.808;9.222;2024-01-30T10:05:54;28.97;;;13.63;;
466;SDS011;72290;48.808;9.222;2024-01-30T10:08:20;32.53;;;14.13;;
466;SDS011;72290;48.808;9.222;2024-01-30T10:10:47;28.00;;;13.83;;
466;SDS011;72290;48.808;9.222;2024-01-30T10:13:13;26.43;;;13.30;;
466;SDS011;72290;48.808;9.222;2024-01-30T10:15:39;24.70;;;12.77;;
466;SDS011;72290;48.808;9.222;2024-01-30T10:18:05;33.27;;;13.37;;
466;SDS011;72290;48.808;9.222;2024-01-30T10:20:32;27.40;;;14.03;;
466;SDS011;72290;48.808;9.222;2024-01-30T10:22:58;25.17;;;12.77;;
466;SDS011;72290;48.808;9.222;2024-01-30T10:25:24;29.43;;;13.13;;
466;SDS011;72290;48.808;9.222;2024-01-30T10:27:54;23.77;;;13.23;;
466;SDS011;72290;48.808;9.222;2024-01-30T10:30:23;34.00;;;14.73;;
466;SDS011;72290;48.808;9.222;2024-01-30T10:32:49;30.07;;;13.30;;
466;SDS011;72290;48.808;9.222;2024-01-30T10:35:15;31.10;;;14.40;;
466;SDS011;72290;48.808;9.222;2024-01-30T10:37:44;30.40;;;14.50;;
466;SDS011;72290;48.808;9.222;2024-01-30T10:40:13;28.33;;;13.87;;
466;SDS011;72290;48.808;9.222;2024-01-30T10:42:41;29.60;;;14.70;;
466;SDS011;72290;48.808;9.222;2024-01-30T10:45:14;30.10;;;13.83;;
466;SDS011;72290;48.808;9.222;2024-01-30T10:47:45;32.80;;;14.33;;
466;SDS011;72290;48.808;9.222;2024-01-30T10:50:13;38.20;;;14.90;;
466;SDS011;72290;48.808;9.222;2024-01-30T10:52:40;29.80;;;15.00;;
466;SDS011;72290;48.808;9.222;2024-01-30T10:55:07;31.93;;;16.07;;
466;SDS011;72290;48.808;9.222;2024-01-30T10:57:36;24.93;;;14.43;;
466;SDS011;72290;48.808;9.222;2024-01-30T11:00:03;28.80;;;13.80;;
466;SDS011;72290;48.808;9.222;2024-01-30T11:02:30;30.27;;;14.23;;
466;SDS011;72290;48.808;9.222;2024-01-30T11:04:57;33.80;;;15.53;;
466;SDS011;72290;48.808;9.222;2024-01-30T11:07:27;29.27;;;13.10;;
466;SDS011;72290;48.808;9.222;2024-01-30T11:10:00;24.37;;;13.30;;
466;SDS011;72290;48.808;9.222;2024-01-30T11:12:26;26.20;;;12.87;;
466;SDS011;72290;48.808;9.222;2024-01-30T11:17:39;25.23;;;12.53;;
466;SDS011;72290;48.808;9.222;2024-01-30T11:20:05;29.00;;;12.87;;
466;SDS011;72290;48.808;9.222;2024-01-30T11:22:32;30.43;;;13.87;;
466;SDS011;72290;48.808;9.222;2024-01-30T11:24:57;26.77;;;13.43;;
466;SDS011;72290;48.808;9.222;2024-01-30T11:27:24;31.97;;;13.20;;
466;SDS011;72290;48.808;9.222;2024-01-30T11:29:52;27.03;;;12.63;;
466;SDS011;72290;48.808;9.222;2024-01-30T11:32:22;35.17;;;15.03;;
466;SDS011;72290;48.808;9.222;2024-01-30T11:34:49;21.00;;;12.77;;
466;SDS011;72290;48.808;9.222;2024-01-30T11:37:15;27.47;;;13.23;;
466;SDS011;72290;48.808;9.222;2024-01-30T11:39:41;30.40;;;11.30;;
466;SDS011;72290;48.808;9.222;2024-01-30T11:42:08;27.73;;;13.43;;
466;SDS011;72290;48.808;9.222;2024-01-30T11:44:34;24.33;;;12.10;;
466;SDS011;72290;48.808;9.222;2024-01-30T11:47:00;30.03;;;13.83;;
466;SDS011;72290;48.808;9.222;2024-01-30T11:49:28;27.80;;;13.40;;
466;SDS011;72290;48.808;9.222;2024-01-30T11:51:54;27.97;;;12.40;;
466;SDS011;72290;48.808;9.222;2024-01-30T11:54:20;32.07;;;12.43;;
466;SDS011;72290;48.808;9.222;2024-01-30T11:56:46;34.27;;;11.97;;
466;SDS011;72290;48.808;9.222;2024-01-30T11:59:13;25.03;;;11.67;;
466;SDS011;72290;48.808;9.222;2024-01-30T12:01:39;28.73;;;11.97;;
466;SDS011;72290;48.808;9.222;2024-01-30T12:04:05;24.73;;;12.00;;
466;SDS011;72290;48.808;9.222;2024-01-30T12:06:34;23.20;;;11.80;;
466;SDS011;72290;48.808;9.222;2024-01-30T12:09:01;22.70;;;11.87;;
466;SDS011;72290;48.808;9.222;2024-01-30T12:11:32;26.90;;;12.60;;
466;SDS011;72290;48.808;9.222;2024-01-30T12:13:58;30.83;;;14.33;;
466;SDS011;72290;48.808;9.222;2024-01-30T12:16:25;34.80;;;12.40;;
466;SDS011;72290;48.808;9.222;2024-01-30T12:18:58;32.00;;;13.37;;
466;SDS011;72290;48.808;9.222;2024-01-30T12:21:25;21.83;;;11.80;;
466;SDS011;72290;48.808;9.222;2024-01-30T12:23:51;31.57;;;12.80;;
466;SDS011;72290;48.808;9.222;2024-01-30T12:26:17;25.40;;;11.33;;
466;SDS011;72290;48.808;9.222;2024-01-30T12:28:47;27.20;;;13.00;;
466;SDS011;72290;48.808;9.222;2024-01-30T12:31:13;26.17;;;12.00;;
466;SDS011;72290;48.808;9.222;2024-01-30T12:33:39;28.77;;;12.30;;
466;SDS011;72290;48.808;9.222;2024-01-30T12:36:05;26.73;;;13.63;;
466;SDS011;72290;48.808;9.222;2024-01-30T12:38:31;29.10;;;12.50;;
466;SDS011;72290;48.808;9.222;2024-01-30T12:40:58;29.47;;;12.53;;
466;SDS011;72290;48.808;9.222;2024-01-30T12:43:23;32.60;;;12.63;;
466;SDS011;72290;48.808;9.222;2024-01-30T12:45:50;32.23;;;12.73;;
466;SDS011;72290;48.808;9.222;2024-01-30T12:48:16;32.47;;;13.20;;
466;SDS011;72290;48.808;9.222;2024-01-30T12:50:42;26.33;;;12.37;;
466;SDS011;72290;48.808;9.222;2024-01-30T12:53:08;33.20;;;14.17;;
466;SDS011;72290;48.808;9.222;2024-01-30T12:55:34;25.43;;;12.90;;
466;SDS011;72290;48.808;9.222;2024-01-30T12:58:00;33.23;;;13.70;;
466;SDS011;72290;48.808;9.222;2024-01-30T13:00:26;29.83;;;13.77;;
466;SDS011;72290;48.808;9.222;2024-01-30T13:02:52;33.33;;;13.03;;
466;SDS011;72290;48.808;9.222;2024-01-30T13:05:18;28.47;;;12.33;;
466;SDS011;72290;48.808;9.222;2024-01-30T13:07:44;37.10;;;15.67;;
466;SDS011;72290;48.808;9.222;2024-01-30T13:10:10;28.03;;;13.17;;
466;SDS011;72290;48.808;9.222;2024-01-30T13:12:36;29.27;;;13.67;;
466;SDS011;72290;48.808;9.222;2024-01-30T13:15:03;27.27;;;13.27;;
466;SDS011;72290;48.808;9.222;2024-01-30T13:17:30;29.47;;;13.00;;
466;SDS011;72290;48.808;9.222;2024-01-30T13:19:56;28.33;;;13.50;;
466;SDS011;72290;48.808;9.222;2024-01-30T13:22:22;32.43;;;13.93;;
466;SDS011;72290;48.808;9.222;2024-01-30T13:24:48;26.90;;;12.50;;
466;SDS011;72290;48.808;9.222;2024-01-30T13:27:13;24.83;;;13.40;;
466;SDS011;72290;48.808;9.222;2024-01-30T13:29:39;27.67;;;13.30;;
466;SDS011;72290;48.808;9.222;2024-01-30T13:32:05;23.90;;;12.97;;
466;SDS011;72290;48.808;9.222;2024-01-30T13:34:32;25.23;;;12.00;;
466;SDS011;72290;48.808;9.222;2024-01-30T13:36:58;27.80;;;13.23;;
466;SDS011;72290;48.808;9.222;2024-01-30T13:39:24;27.70;;;12.43;;
466;SDS011;72290;48.808;9.222;2024-01-30T13:41:49;26.97;;;12.20;;
466;SDS011;72290;48.808;9.222;2024-01-30T13:44:16;22.20;;;11.90;;
466;SDS011;72290;48.808;9.222;2024-01-30T13:46:42;30.30;;;13.73;;
466;SDS011;72290;48.808;9.222;2024-01-30T13:49:08;26.33;;;13.50;;
466;SDS011;72290;48.808;9.222;2024-01-30T13:51:34;29.60;;;13.10;;
466;SDS011;72290;48.808;9.222;2024-01-30T13:54:00;24.80;;;13.43;;
466;SDS011;72290;48.808;9.222;2024-01-30T13:56:26;26.90;;;12.90;;
466;SDS011;72290;48.808;9.222;2024-01-30T13:58:52;34.07;;;15.10;;
466;SDS011;72290;48.808;9.222;2024-01-30T14:01:20;34.90;;;15.67;;
466;SDS011;72290;48.808;9.222;2024-01-30T14:03:46;26.03;;;13.20;;
466;SDS011;72290;48.808;9.222;2024-01-30T14:06:12;27.30;;;13.10;;
466;SDS011;72290;48.808;9.222;2024-01-30T14:08:39;30.13;;;14.10;;
466;SDS011;72290;48.808;9.222;2024-01-30T14:11:05;30.47;;;13.90;;
466;SDS011;72290;48.808;9.222;2024-01-30T14:13:31;22.97;;;13.33;;
466;SDS011;72290;48.808;9.222;2024-01-30T14:15:57;27.23;;;12.30;;
466;SDS011;72290;48.808;9.222;2024-01-30T14:18:24;29.57;;;14.03;;
466;SDS011;72290;48.808;9.222;2024-01-30T14:20:50;27.00;;;14.67;;
466;SDS011;72290;48.808;9.222;2024-01-30T14:23:17;30.23;;;12.60;;
466;SDS011;72290;48.808;9.222;2024-01-30T14:25:43;28.60;;;14.90;;
466;SDS011;72290;48.808;9.222;2024-01-30T14:28:09;26.73;;;12.93;;
466;SDS011;72290;48.808;9.222;2024-01-30T14:30:35;28.03;;;14.23;;
466;SDS011;72290;48.808;9.222;2024-01-30T14:33:01;25.50;;;15.30;;
466;SDS011;72290;48.808;9.222;2024-01-30T14:35:27;33.20;;;15.17;;
466;SDS011;72290;48.808;9.222;2024-01-30T14:37:53;27.20;;;13.97;;
466;SDS011;72290;48.808;9.222;2024-01-30T14:40:19;22.17;;;13.53;;
466;SDS011;72290;48.808;9.222;2024-01-30T14:42:45;28.30;;;13.40;;
466;SDS011;72290;48.808;9.222;2024-01-30T14:45:12;26.53;;;13.00;;
466;SDS011;72290;48.808;9.222;2024-01-30T14:47:37;25.53;;;13.53;;
466;SDS011;72290;48.808;9.222;2024-01-30T14:50:04;27.33;;;12.93;;
466;SDS011;72290;48.808;9.222;2024-01-30T14:52:30;28.80;;;13.87;;
466;SDS011;72290;48.808;9.222;2024-01-30T14:54:56;21.97;;;12.87;;
466;SDS011;72290;48.808;9.222;2024-01-30T14:57:23;27.93;;;13.57;;
466;SDS011;72290;48.808;9.222;2024-01-30T14:59:49;23.23;;;12.60;;
466;SDS011;72290;48.808;9.222;2024-01-30T15:02:15;19.63;;;12.10;;
466;SDS011;72290;48.808;9.222;2024-01-30T15:04:41;23.83;;;12.60;;
466;SDS011;72290;48.808;9.222;2024-01-30T15:07:07;20.20;;;12.30;;
466;SDS011;72290;48.808;9.222;2024-01-30T15:09:33;22.20;;;11.20;;
466;SDS011;72290;48.808;9.222;2024-01-30T15:11:59;19.50;;;11.27;;
466;SDS011;72290;48.808;9.222;2024-01-30T15:14:25;26.47;;;11.90;;
466;SDS011;72290;48.808;9.222;2024-01-30T15:16:50;25.93;;;12.63;;
466;SDS011;72290;48.808;9.222;2024-01-30T15:19:16;22.70;;;12.00;;
466;SDS011;72290;48.808;9.222;2024-01-30T15:21:42;27.87;;;12.67;;
466;SDS011;72290;48.808;9.222;2024-01-30T15:24:08;26.67;;;12.37;;
466;SDS011;72290;48.808;9.222;2024-01-30T15:26:37;18.13;;;11.70;;
466;SDS011;72290;48.808;9.222;2024-01-30T15:29:03;26.60;;;11.63;;
466;SDS011;72290;48.808;9.222;2024-01-30T15:31:29;18.17;;;10.47;;
466;SDS011;72290;48.808;9.222;2024-01-30T15:33:55;23.77;;;11.37;;
466;SDS011;72290;48.808;9.222;2024-01-30T15:36:22;24.10;;;12.70;;
466;SDS011;72290;48.808;9.222;2024-01-30T15:38:48;19.50;;;11.77;;
466;SDS011;72290;48.808;9.222;2024-01-30T15:41:14;26.67;;;12.90;;
466;SDS011;72290;48.808;9.222;2024-01-30T15:43:40;22.30;;;10.67;;
466;SDS011;72290;48.808;9.222;2024-01-30T15:46:06;25.87;;;11.10;;
466;SDS011;72290;48.808;9.222;2024-01-30T15:48:32;17.23;;;10.40;;
466;SDS011;72290;48.808;9.222;2024-01-30T15:50:58;18.93;;;10.57;;
466;SDS011;72290;48.808;9.222;2024-01-30T15:53:26;18.10;;;10.17;;
466;SDS011;72290;48.808;9.222;2024-01-30T15:55:52;21.30;;;11.50;;
466;SDS011;72290;48.808;9.222;2024-01-30T15:58:18;29.60;;;12.37;;
466;SDS011;72290;48.808;9.222;2024-01-30T16:00:44;18.30;;;11.47;;
466;SDS011;72290;48.808;9.222;2024-01-30T16:03:10;25.80;;;11.93;;
466;SDS011;72290;48.808;9.222;2024-01-30T16:05:36;22.57;;;11.10;;
466;SDS011;72290;48.808;9.222;2024-01-30T16:08:02;17.80;;;10.40;;
466;SDS011;72290;48.808;9.222;2024-01-30T16:10:28;17.50;;;11.43;;
466;SDS011;72290;48.808;9.222;2024-01-30T16:12:54;18.50;;;11.60;;
466;SDS011;72290;48.808;9.222;2024-01-30T16:15:20;21.60;;;11.27;;
466;SDS011;72290;48.808;9.222;2024-01-30T16:17:47;29.17;;;12.97;;
466;SDS011;72290;48.808;9.222;2024-01-30T16:20:13;20.93;;;12.07;;
466;SDS011;72290;48.808;9.222;2024-01-30T16:22:39;22.60;;;11.20;;
466;SDS011;72290;48.808;9.222;2024-01-30T16:25:05;21.53;;;11.20;;
466;SDS011;72290;48.808;9.222;2024-01-30T16:27:31;20.23;;;10.53;;
466;SDS011;72290;48.808;9.222;2024-01-30T16:29:57;22.23;;;11.77;;
466;SDS011;72290;48.808;9.222;2024-01-30T16:32:23;20.37;;;10.87;;
466;SDS011;72290;48.808;9.222;2024-01-30T16:34:49;23.63;;;11.73;;
466;SDS011;72290;48.808;9.222;2024-01-30T16:37:15;26.87;;;13.80;;
466;SDS011;72290;48.808;9.222;2024-01-30T16:39:42;26.80;;;12.63;;
466;SDS011;72290;48.808;9.222;2024-01-30T16:42:08;27.20;;;12.10;;
466;SDS011;72290;48.808;9.222;2024-01-30T16:44:34;25.07;;;11.60;;
466;SDS011;72290;48.808;9.222;2024-01-30T16:47:00;20.00;;;11.17;;
466;SDS011;72290;48.808;9.222;2024-01-30T16:49:26;26.37;;;12.50;;
466;SDS011;72290;48.808;9.222;2024-01-30T16:51:52;23.43;;;12.90;;
466;SDS011;72290;48.808;9.222;2024-01-30T16:54:18;31.30;;;12.63;;
466;SDS011;72290;48.808;9.222;2024-01-30T16:56:44;26.30;;;12.60;;
466;SDS011;72290;48.808;9.222;2024-01-30T16:59:13;24.23;;;12.00;;
466;SDS011;72290;48.808;9.222;2024-01-30T17:01:40;25.53;;;11.93;;
466;SDS011;72290;48.808;9.222;2024-01-30T17:04:09;17.83;;;11.23;;
466;SDS011;72290;48.808;9.222;2024-01-30T17:06:35;19.77;;;10.80;;
466;SDS011;72290;48.808;9.222;2024-01-30T17:09:01;21.63;;;11.10;;
466;SDS011;72290;48.808;9.222;2024-01-30T17:11:27;29.40;;;11.77;;
466;SDS011;72290;48.808;9.222;2024-01-30T17:13:53;27.37;;;12.80;;
466;SDS011;72290;48.808;9.222;2024-01-30T17:16:19;28.40;;;12.07;;
466;SDS011;72290;48.808;9.222;2024-01-30T17:18:45;20.93;;;12.20;;
466;SDS011;72290;48.808;9.222;2024-01-30T17:21:18;24.57;;;11.97;;
466;SDS011;72290;48.808;9.222;2024-01-30T17:23:44;23.57;;;13.00;;
466;SDS011;72290;48.808;9.222;2024-01-30T17:26:10;28.83;;;12.87;;
466;SDS011;72290;48.808;9.222;2024-01-30T17:28:36;28.07;;;13.07;;
466;SDS011;72290;48.808;9.222;2024-01-30T17:31:02;22.80;;;11.80;;
466;SDS011;72290;48.808;9.222;2024-01-30T17:33:28;27.53;;;12.10;;
466;SDS011;72290;48.808;9.222;2024-01-30T17:35:54;26.83;;;12.80;;
466;SDS011;72290;48.808;9.222;2024-01-30T17:38:20;35.13;;;14.80;;
466;SDS011;72290;48.808;9.222;2024-01-30T17:40:46;25.97;;;14.50;;
466;SDS011;72290;48.808;9.222;2024-01-30T17:43:12;27.63;;;13.40;;
466;SDS011;72290;48.808;9.222;2024-01-30T17:45:38;28.20;;;12.90;;
466;SDS011;72290;48.808;9.222;2024-01-30T17:48:05;26.03;;;13.53;;
466;SDS011;72290;48.808;9.222;2024-01-30T17:50:31;26.10;;;13.00;;
466;SDS011;72290;48.808;9.222;2024-01-30T17:52:56;22.87;;;11.80;;
466;SDS011;72290;48.808;9.222;2024-01-30T17:55:23;25.27;;;11.97;;
466;SDS011;72290;48.808;9.222;2024-01-30T17:57:49;21.70;;;11.87;;
466;SDS011;72290;48.808;9.222;2024-01-30T18:00:15;34.23;;;13.87;;
466;SDS011;72290;48.808;9.222;2024-01-30T18:02:41;24.73;;;12.00;;
466;SDS011;72290;48.808;9.222;2024-01-30T18:05:07;26.63;;;14.13;;
466;SDS011;72290;48.808;9.222;2024-01-30T18:07:34;23.90;;;13.80;;
466;SDS011;72290;48.808;9.222;2024-01-30T18:10:03;29.00;;;12.63;;
466;SDS011;72290;48.808;9.222;2024-01-30T18:12:29;26.63;;;13.57;;
466;SDS011;72290;48.808;9.222;2024-01-30T18:14:55;29.63;;;14.57;;
466;SDS011;72290;48.808;9.222;2024-01-30T18:17:21;35.53;;;15.50;;
466;SDS011;72290;48.808;9.222;2024-01-30T18:19:47;34.10;;;18.03;;
466;SDS011;72290;48.808;9.222;2024-01-30T18:22:13;52.97;;;19.67;;
466;SDS011;72290;48.808;9.222;2024-01-30T18:24:39;38.83;;;15.70;;
466;SDS011;72290;48.808;9.222;2024-01-30T18:27:06;35.90;;;15.87;;
466;SDS011;72290;48.808;9.222;2024-01-30T18:29:33;45.20;;;16.30;;
466;SDS011;72290;48.808;9.222;2024-01-30T18:31:59;37.97;;;19.20;;
466;SDS011;72290;48.808;9.222;2024-01-30T18:34:25;48.90;;;20.07;;
466;SDS011;72290;48.808;9.222;2024-01-30T18:36:51;44.87;;;19.50;;
466;SDS011;72290;48.808;9.222;2024-01-30T18:39:17;44.73;;;18.03;;
466;SDS011;72290;48.808;9.222;2024-01-30T18:41:43;44.00;;;18.33;;
466;SDS011;72290;48.808;9.222;2024-01-30T18:44:09;43.33;;;17.03;;
466;SDS011;72290;48.808;9.222;2024-01-30T18:46:35;37.33;;;17.00;;
466;SDS011;72290;48.808;9.222;2024-01-30T18:49:01;33.57;;;16.60;;
466;SDS011;72290;48.808;9.222;2024-01-30T18:51:27;36.60;;;16.90;;
466;SDS011;72290;48.808;9.222;2024-01-30T18:53:53;36.80;;;17.27;;
466;SDS011;72290;48.808;9.222;2024-01-30T18:56:19;32.93;;;17.13;;
466;SDS011;72290;48.808;9.222;2024-01-30T18:58:46;35.57;;;19.00;;
466;SDS011;72290;48.808;9.222;2024-01-30T19:01:12;32.70;;;16.80;;
466;SDS011;72290;48.808;9.222;2024-01-30T19:03:38;43.07;;;17.90;;
466;SDS011;72290;48.808;9.222;2024-01-30T19:06:04;36.07;;;16.93;;
466;SDS011;72290;48.808;9.222;2024-01-30T19:08:30;37.00;;;17.27;;
466;SDS011;72290;48.808;9.222;2024-01-30T19:10:56;52.73;;;17.97;;
466;SDS011;72290;48.808;9.222;2024-01-30T19:13:22;45.90;;;17.27;;
466;SDS011;72290;48.808;9.222;2024-01-30T19:15:48;41.77;;;18.10;;
466;SDS011;72290;48.808;9.222;2024-01-30T19:18:14;61.87;;;20.87;;
466;SDS011;72290;48.808;9.222;2024-01-30T19:20:40;38.33;;;17.53;;
466;SDS011;72290;48.808;9.222;2024-01-30T19:23:06;37.30;;;18.67;;
466;SDS011;72290;48.808;9.222;2024-01-30T19:25:32;55.23;;;21.53;;
466;SDS011;72290;48.808;9.222;2024-01-30T19:27:58;47.47;;;19.60;;
466;SDS011;72290;48.808;9.222;2024-01-30T19:30:25;41.53;;;18.53;;
466;SDS011;72290;48.808;9.222;2024-01-30T19:32:51;39.90;;;17.30;;
466;SDS011;72290;48.808;9.222;2024-01-30T19:35:17;49.07;;;19.70;;
466;SDS011;72290;48.808;9.222;2024-01-30T19:37:43;59.53;;;20.43;;
466;SDS011;72290;48.808;9.222;2024-01-30T19:40:09;40.07;;;19.17;;
466;SDS011;72290;48.808;9.222;2024-01-30T19:42:35;33.13;;;16.57;;
466;SDS011;72290;48.808;9.222;2024-01-30T19:45:02;37.47;;;17.60;;
466;SDS011;72290;48.808;9.222;2024-01-30T19:47:28;42.40;;;17.50;;
466;SDS011;72290;48.808;9.222;2024-01-30T19:49:54;35.40;;;16.60;;
466;SDS011;72290;48.808;9.222;2024-01-30T19:52:20;41.50;;;17.73;;
466;SDS011;72290;48.808;9.222;2024-01-30T19:54:46;38.23;;;17.90;;
466;SDS011;72290;48.808;9.222;2024-01-30T19:57:12;39.03;;;17.10;;
466;SDS011;72290;48.808;9.222;2024-01-30T19:59:38;42.20;;;18.40;;
466;SDS011;72290;48.808;9.222;2024-01-30T20:02:04;39.77;;;18.67;;
466;SDS011;72290;48.808;9.222;2024-01-30T20:04:29;43.40;;;18.03;;
466;SDS011;72290;48.808;9.222;2024-01-30T20:06:56;44.40;;;19.23;;
466;SDS011;72290;48.808;9.222;2024-01-30T20:09:21;55.10;;;20.77;;
466;SDS011;72290;48.808;9.222;2024-01-30T20:11:50;43.77;;;16.93;;
466;SDS011;72290;48.808;9.222;2024-01-30T20:14:16;42.20;;;17.47;;
466;SDS011;72290;48.808;9.222;2024-01-30T20:16:42;43.03;;;17.40;;
466;SDS011;72290;48.808;9.222;2024-01-30T20:19:12;34.20;;;18.20;;
466;SDS011;72290;48.808;9.222;2024-01-30T20:21:38;42.63;;;18.67;;
466;SDS011;72290;48.808;9.222;2024-01-30T20:24:05;41.13;;;16.87;;
466;SDS011;72290;48.808;9.222;2024-01-30T20:26:31;45.63;;;18.90;;
466;SDS011;72290;48.808;9.222;2024-01-30T20:28:58;42.10;;;19.00;;
466;SDS011;72290;48.808;9.222;2024-01-30T20:31:24;38.00;;;17.57;;
466;SDS011;72290;48.808;9.222;2024-01-30T20:33:50;42.93;;;18.90;;
466;SDS011;72290;48.808;9.222;2024-01-30T20:36:17;42.63;;;18.30;;
466;SDS011;72290;48.808;9.222;2024-01-30T20:38:43;39.50;;;18.33;;
466;SDS011;72290;48.808;9.222;2024-01-30T20:41:09;44.10;;;19.07;;
466;SDS011;72290;48.808;9.222;2024-01-30T20:43:40;48.10;;;18.87;;
466;SDS011;72290;48.808;9.222;2024-01-30T20:46:06;45.60;;;19.20;;